createdAt,value
2018-09-23T00:01:09.532Z,101302.91
2018-09-23T00:03:38.649Z,101297.66
2018-09-23T00:06:07.559Z,101293.38
2018-09-23T00:08:36.614Z,101290.86
2018-09-23T00:11:05.575Z,101288.36
2018-09-23T00:13:34.874Z,101285.64
2018-09-23T00:16:03.758Z,101282.05
2018-09-23T00:18:32.655Z,101290.16
2018-09-23T00:21:01.543Z,101288.61
2018-09-23T00:23:30.446Z,101295.39
2018-09-23T00:25:59.540Z,101298.63
2018-09-23T00:28:28.400Z,101303.03
2018-09-23T00:30:57.412Z,101299.77
2018-09-23T00:33:26.447Z,101298.10
2018-09-23T00:35:55.342Z,101290.81
2018-09-23T00:38:24.232Z,101287.99
2018-09-23T00:40:53.242Z,101296.55
2018-09-23T00:43:22.179Z,101292.13
2018-09-23T00:45:51.534Z,101291.80
2018-09-23T00:48:20.417Z,101287.86
2018-09-23T00:50:49.347Z,101287.38
2018-09-23T00:53:18.370Z,101279.84
2018-09-23T00:55:47.389Z,101277.72
2018-09-23T00:58:16.308Z,101272.84
2018-09-23T01:00:45.295Z,101274.16
2018-09-23T01:03:14.117Z,101269.70
2018-09-23T01:05:43.083Z,101268.88
2018-09-23T01:08:12.040Z,101271.02
2018-09-23T01:10:41.106Z,101264.23
2018-09-23T01:13:10.031Z,101265.52
2018-09-23T01:15:38.983Z,101266.23
2018-09-23T01:18:07.908Z,101267.89
2018-09-23T01:20:36.725Z,101264.40
2018-09-23T01:23:05.820Z,101265.58
2018-09-23T01:25:34.723Z,101265.95
2018-09-23T01:28:03.638Z,101271.80
2018-09-23T01:30:32.540Z,101268.89
2018-09-23T01:33:01.458Z,101270.70
2018-09-23T01:35:30.416Z,101271.27
2018-09-23T01:37:59.283Z,101275.06
2018-09-23T01:40:28.155Z,101276.88
2018-09-23T01:42:57.049Z,101275.95
2018-09-23T01:45:25.988Z,101280.20
2018-09-23T01:47:54.979Z,101283.42
2018-09-23T01:50:23.836Z,101278.33
2018-09-23T01:52:52.835Z,101280.63
2018-09-23T01:55:21.783Z,101277.53
2018-09-23T01:57:50.663Z,101279.34
2018-09-23T02:00:19.586Z,101286.08
2018-09-23T02:02:48.547Z,101279.25
2018-09-23T02:05:17.471Z,101277.57
2018-09-23T02:07:46.352Z,101277.35
2018-09-23T02:10:15.346Z,101280.48
2018-09-23T02:12:44.253Z,101278.19
2018-09-23T02:15:13.141Z,101272.42
2018-09-23T02:17:42.116Z,101274.77
2018-09-23T02:20:11.064Z,101278.36
2018-09-23T02:22:39.992Z,101274.94
2018-09-23T02:25:08.846Z,101275.91
2018-09-23T02:27:37.939Z,101273.70
2018-09-23T02:30:06.945Z,101268.48
2018-09-23T02:32:35.862Z,101262.77
2018-09-23T02:35:04.786Z,101263.97
2018-09-23T02:37:33.756Z,101269.81
2018-09-23T02:40:02.724Z,101269.21
2018-09-23T02:44:55.348Z,101282.55
2018-09-23T02:47:24.351Z,101287.31
2018-09-23T02:49:53.320Z,101291.58
2018-09-23T02:52:23.448Z,101284.12
2018-09-23T02:54:52.438Z,101290.42
2018-09-23T02:57:21.363Z,101280.63
2018-09-23T02:59:50.231Z,101286.81
2018-09-23T03:02:19.332Z,101288.50
2018-09-23T03:04:48.299Z,101286.52
2018-09-23T03:07:17.184Z,101290.34
2018-09-23T03:09:46.182Z,101296.29
2018-09-23T03:12:15.051Z,101294.51
2018-09-23T03:14:44.173Z,101296.86
2018-09-23T03:17:13.136Z,101292.06
2018-09-23T03:19:41.980Z,101295.89
2018-09-23T03:22:10.855Z,101295.88
2018-09-23T03:24:39.816Z,101298.84
2018-09-23T03:27:08.785Z,101302.95
2018-09-23T03:29:37.708Z,101300.23
2018-09-23T03:32:06.747Z,101295.23
2018-09-23T03:34:35.635Z,101294.77
2018-09-23T03:37:04.590Z,101295.31
2018-09-23T03:39:33.612Z,101300.69
2018-09-23T03:42:02.578Z,101305.59
2018-09-23T03:44:31.504Z,101303.94
2018-09-23T03:47:00.487Z,101311.66
2018-09-23T03:49:29.379Z,101309.85
2018-09-23T03:51:58.270Z,101309.15
2018-09-23T03:54:27.197Z,101300.48
2018-09-23T03:56:56.167Z,101301.22
2018-09-23T03:59:25.089Z,101298.60
2018-09-23T04:01:54.081Z,101306.69
2018-09-23T04:04:24.191Z,101303.60
2018-09-23T04:06:53.052Z,101310.48
2018-09-23T04:09:21.932Z,101308.07
2018-09-23T04:11:50.932Z,101307.37
2018-09-23T04:14:19.956Z,101310.69
2018-09-23T04:16:48.939Z,101316.80
2018-09-23T04:19:17.906Z,101317.74
2018-09-23T04:21:46.811Z,101326.20
2018-09-23T04:24:15.692Z,101328.59
2018-09-23T04:26:44.663Z,101327.78
2018-09-23T04:29:13.514Z,101325.55
2018-09-23T04:31:42.383Z,101323.41
2018-09-23T04:34:12.567Z,101331.33
2018-09-23T04:36:41.462Z,101332.53
2018-09-23T04:39:11.466Z,101332.77
2018-09-23T04:41:40.456Z,101332.28
2018-09-23T04:44:09.365Z,101332.56
2018-09-23T04:46:38.291Z,101335.07
2018-09-23T04:49:07.307Z,101335.66
2018-09-23T04:51:37.450Z,101333.05
2018-09-23T04:54:06.432Z,101328.39
2018-09-23T04:56:35.368Z,101328.39
2018-09-23T04:59:04.311Z,101329.96
2018-09-23T05:01:33.220Z,101328.27
2018-09-23T05:04:02.131Z,101331.99
2018-09-23T05:06:31.069Z,101338.55
2018-09-23T05:08:59.984Z,101341.77
2018-09-23T05:11:28.903Z,101346.42
2018-09-23T05:13:57.816Z,101350.11
2018-09-23T05:16:26.780Z,101352.11
2018-09-23T05:18:55.724Z,101357.02
2018-09-23T05:21:26.255Z,101353.34
2018-09-23T05:23:55.152Z,101346.54
2018-09-23T05:26:24.044Z,101354.40
2018-09-23T05:28:52.935Z,101349.16
2018-09-23T05:31:21.872Z,101346.16
2018-09-23T05:33:50.783Z,101345.42
2018-09-23T05:36:19.684Z,101353.25
2018-09-23T05:38:48.596Z,101352.69
2018-09-23T05:41:17.527Z,101354.00
2018-09-23T05:43:46.450Z,101360.39
2018-09-23T05:46:15.333Z,101359.67
2018-09-23T05:48:45.631Z,101365.34
2018-09-23T05:51:14.507Z,101371.92
2018-09-23T05:53:44.828Z,101377.73
2018-09-23T05:56:13.863Z,101384.06
2018-09-23T05:58:42.945Z,101385.44
2018-09-23T06:01:12.550Z,101383.95
2018-09-23T06:03:41.432Z,101392.52
2018-09-23T06:06:10.514Z,101395.80
2018-09-23T06:08:39.547Z,101396.16
2018-09-23T06:11:09.868Z,101399.41
2018-09-23T06:13:38.728Z,101403.09
2018-09-23T06:16:07.657Z,101407.13
2018-09-23T06:18:36.938Z,101413.39
2018-09-23T06:21:05.925Z,101418.70
2018-09-23T06:23:34.887Z,101426.97
2018-09-23T06:26:05.040Z,101427.52
2018-09-23T06:28:33.900Z,101430.73
2018-09-23T06:31:02.794Z,101426.67
2018-09-23T06:33:31.746Z,101430.97
2018-09-23T06:36:00.641Z,101438.77
2018-09-23T06:38:31.209Z,101438.00
2018-09-23T06:41:00.081Z,101441.10
2018-09-23T06:43:28.987Z,101448.70
2018-09-23T06:45:59.224Z,101447.81
2018-09-23T06:48:28.244Z,101447.69
2018-09-23T06:50:57.201Z,101445.27
2018-09-23T06:53:27.366Z,101439.91
2018-09-23T06:55:57.496Z,101440.48
2018-09-23T06:58:26.329Z,101434.13
2018-09-23T07:00:55.296Z,101436.80
2018-09-23T07:03:24.183Z,101445.61
2018-09-23T07:05:53.025Z,101444.33
2018-09-23T07:08:23.388Z,101455.77
2018-09-23T07:10:52.303Z,101451.36
2018-09-23T07:13:21.141Z,101450.13
2018-09-23T07:15:50.099Z,101458.70
2018-09-23T07:18:18.993Z,101465.44
2018-09-23T07:20:48.026Z,101457.97
2018-09-23T07:23:16.975Z,101457.77
2018-09-23T07:25:45.913Z,101457.52
2018-09-23T07:28:15.659Z,101451.63
2018-09-23T07:30:45.886Z,101455.20
2018-09-23T07:33:14.783Z,101458.05
2018-09-23T07:35:43.639Z,101462.73
2018-09-23T07:38:12.637Z,101452.96
2018-09-23T07:40:41.523Z,101461.78
2018-09-23T07:43:10.406Z,101469.38
2018-09-23T07:45:40.852Z,101459.41
2018-09-23T07:48:09.837Z,101459.55
2018-09-23T07:50:38.857Z,101461.41
2018-09-23T07:53:07.783Z,101464.86
2018-09-23T07:55:36.712Z,101463.41
2018-09-23T07:58:05.791Z,101469.91
2018-09-23T08:00:36.071Z,101457.27
2018-09-23T08:03:04.980Z,101452.73
2018-09-23T08:05:33.896Z,101471.45
2018-09-23T08:08:04.188Z,101462.52
2018-09-23T08:10:33.126Z,101459.83
2018-09-23T08:13:02.325Z,101460.44
2018-09-23T08:15:31.199Z,101471.89
2018-09-23T08:18:00.127Z,101462.95
2018-09-23T08:20:29.172Z,101458.52
2018-09-23T08:22:57.977Z,101455.97
2018-09-23T08:25:26.921Z,101468.82
2018-09-23T08:27:55.939Z,101470.27
2018-09-23T08:30:26.172Z,101461.98
2018-09-23T08:32:55.087Z,101453.20
2018-09-23T08:35:25.476Z,101448.28
2018-09-23T08:37:54.388Z,101447.19
2018-09-23T08:40:23.231Z,101443.92
2018-09-23T08:42:53.392Z,101427.78
2018-09-23T08:45:22.240Z,101434.80
2018-09-23T08:47:51.259Z,101444.19
2018-09-23T08:50:20.187Z,101432.47
2018-09-23T08:52:50.415Z,101427.70
2018-09-23T08:55:19.297Z,101431.88
2018-09-23T08:57:48.254Z,101429.91
2018-09-23T09:00:17.420Z,101436.63
2018-09-23T09:02:46.446Z,101431.70
2018-09-23T09:05:15.563Z,101432.93
2018-09-23T09:07:44.624Z,101443.58
2018-09-23T09:10:13.568Z,101440.86
2018-09-23T09:12:42.580Z,101442.20
2018-09-23T09:15:11.711Z,101442.75
2018-09-23T09:17:40.676Z,101440.20
2018-09-23T09:20:09.641Z,101442.20
2018-09-23T09:22:38.634Z,101444.38
2018-09-23T09:25:07.627Z,101448.44
2018-09-23T09:27:36.569Z,101449.89
2018-09-23T09:30:05.902Z,101442.95
2018-09-23T09:32:35.163Z,101448.88
2018-09-23T09:35:04.207Z,101453.73
2018-09-23T09:37:33.160Z,101456.51
2018-09-23T09:40:02.135Z,101463.57
2018-09-23T09:42:31.200Z,101459.39
2018-09-23T09:45:00.169Z,101461.73
2018-09-23T09:47:29.284Z,101461.27
2018-09-23T09:49:58.334Z,101461.27
2018-09-23T09:52:27.292Z,101458.07
2018-09-23T09:54:56.434Z,101464.50
2018-09-23T09:57:26.742Z,101470.70
2018-09-23T09:59:55.702Z,101469.55
2018-09-23T10:02:24.636Z,101473.70
2018-09-23T10:04:53.602Z,101474.15
2018-09-23T10:07:23.867Z,101472.04
2018-09-23T10:09:52.772Z,101474.05
2018-09-23T10:12:21.753Z,101478.13
2018-09-23T10:14:50.749Z,101472.19
2018-09-23T10:17:19.876Z,101470.26
2018-09-23T10:19:50.059Z,101480.77
2018-09-23T10:22:19.024Z,101479.50
2018-09-23T10:24:47.962Z,101479.20
2018-09-23T10:27:18.407Z,101482.67
2018-09-23T10:29:47.346Z,101478.27
2018-09-23T10:32:16.316Z,101485.80
2018-09-23T10:34:45.337Z,101480.54
2018-09-23T10:37:14.298Z,101478.23
2018-09-23T10:39:43.255Z,101472.35
2018-09-23T10:42:13.571Z,101468.81
2018-09-23T10:44:42.526Z,101470.48
2018-09-23T10:47:11.452Z,101467.23
2018-09-23T10:49:40.513Z,101466.77
2018-09-23T10:52:09.520Z,101464.13
2018-09-23T10:54:38.491Z,101460.72
2018-09-23T10:57:07.462Z,101461.86
2018-09-23T10:59:37.889Z,101451.47
2018-09-23T11:02:06.844Z,101448.98
2018-09-23T11:04:35.800Z,101443.58
2018-09-23T11:07:06.006Z,101449.23
2018-09-23T11:09:34.945Z,101446.41
2018-09-23T11:12:03.925Z,101445.16
2018-09-23T11:14:34.302Z,101442.69
2018-09-23T11:17:03.226Z,101446.80
2018-09-23T11:19:32.136Z,101454.46
2018-09-23T11:22:02.424Z,101459.43
2018-09-23T11:24:31.325Z,101458.75
2018-09-23T11:27:00.270Z,101443.53
2018-09-23T11:29:30.732Z,101435.20
2018-09-23T11:31:59.642Z,101431.24
2018-09-23T11:34:28.571Z,101435.55
2018-09-23T11:36:58.725Z,101432.74
2018-09-23T11:39:27.675Z,101433.84
2018-09-23T11:41:56.616Z,101436.20
2018-09-23T11:44:25.687Z,101425.25
2018-09-23T11:46:54.639Z,101431.88
2018-09-23T11:49:23.608Z,101433.15
2018-09-23T11:51:52.615Z,101429.73
2018-09-23T11:54:21.762Z,101426.59
2018-09-23T11:56:50.732Z,101434.16
2018-09-23T11:59:21.414Z,101429.03
2018-09-23T12:01:50.437Z,101430.86
2018-09-23T12:04:19.381Z,101433.83
2018-09-23T12:06:48.371Z,101428.20
2018-09-23T12:09:17.413Z,101423.25
2018-09-23T12:11:46.356Z,101427.19
2018-09-23T12:14:15.330Z,101415.46
2018-09-23T12:16:44.246Z,101419.19
2018-09-23T12:19:13.164Z,101419.92
2018-09-23T12:21:42.152Z,101418.77
2018-09-23T12:24:11.181Z,101409.65
2018-09-23T12:26:40.134Z,101406.00
2018-09-23T12:29:09.120Z,101412.97
2018-09-23T12:31:38.124Z,101405.61
2018-09-23T12:34:07.076Z,101410.14
2018-09-23T12:36:37.398Z,101411.66
2018-09-23T12:39:09.253Z,101402.20
2018-09-23T12:41:39.812Z,101401.36
2018-09-23T12:44:08.954Z,101403.34
2018-09-23T12:46:37.892Z,101395.56
2018-09-23T12:49:07.081Z,101394.55
2018-09-23T12:51:36.008Z,101393.59
2018-09-23T12:54:04.922Z,101395.87
2018-09-23T12:56:34.270Z,101395.73
2018-09-23T12:59:03.221Z,101390.42
2018-09-23T13:01:32.140Z,101385.95
2018-09-23T13:04:01.119Z,101392.27
2018-09-23T13:06:30.075Z,101390.50
2018-09-23T13:08:59.007Z,101385.81
2018-09-23T13:11:27.969Z,101381.78
2018-09-23T13:13:56.896Z,101376.08
2018-09-23T13:16:26.771Z,101376.37
2018-09-23T13:18:55.793Z,101375.63
2018-09-23T13:21:24.809Z,101380.97
2018-09-23T13:23:53.725Z,101372.14
2018-09-23T13:26:22.643Z,101379.86
2018-09-23T13:28:51.655Z,101385.52
2018-09-23T13:31:20.620Z,101378.52
2018-09-23T13:33:49.559Z,101368.19
2018-09-23T13:36:18.518Z,101375.30
2018-09-23T13:38:47.452Z,101372.08
2018-09-23T13:41:16.369Z,101375.73
2018-09-23T13:43:45.373Z,101373.30
2018-09-23T13:46:14.346Z,101379.75
2018-09-23T13:48:43.384Z,101379.30
2018-09-23T13:51:12.494Z,101373.09
2018-09-23T13:53:41.511Z,101377.25
2018-09-23T13:56:10.480Z,101373.34
2018-09-23T13:58:40.824Z,101377.45
2018-09-23T14:01:10.074Z,101376.12
2018-09-23T14:03:39.236Z,101363.00
2018-09-23T14:06:09.618Z,101376.31
2018-09-23T14:08:38.624Z,101366.56
2018-09-23T14:11:07.775Z,101372.64
2018-09-23T14:13:36.813Z,101373.92
2018-09-23T14:16:05.795Z,101371.81
2018-09-23T14:18:34.793Z,101377.83
2018-09-23T14:21:05.157Z,101376.07
2018-09-23T14:23:34.187Z,101369.91
2018-09-23T14:26:03.156Z,101378.95
2018-09-23T14:28:32.145Z,101377.98
2018-09-23T14:31:01.132Z,101371.56
2018-09-23T14:33:31.453Z,101381.65
2018-09-23T14:36:00.599Z,101373.48
2018-09-23T14:38:29.636Z,101343.70
2018-09-23T14:40:59.974Z,101370.44
2018-09-23T14:43:28.931Z,101366.78
2018-09-23T14:45:57.845Z,101358.19
2018-09-23T14:48:28.294Z,101377.02
2018-09-23T14:50:57.202Z,101369.35
2018-09-23T14:53:26.157Z,101378.20
2018-09-23T14:55:56.422Z,101376.99
2018-09-23T14:58:25.333Z,101375.66
2018-09-23T15:00:54.403Z,101381.80
2018-09-23T15:03:25.909Z,101384.95
2018-09-23T15:05:54.892Z,101369.00
2018-09-23T15:08:23.890Z,101384.26
2018-09-23T15:10:52.825Z,101377.46
2018-09-23T15:13:21.761Z,101383.94
2018-09-23T15:15:51.906Z,101385.25
2018-09-23T15:18:20.892Z,101384.42
2018-09-23T15:20:49.877Z,101383.45
2018-09-23T15:23:18.832Z,101379.31
2018-09-23T15:25:49.074Z,101389.08
2018-09-23T15:28:19.282Z,101391.23
2018-09-23T15:30:48.270Z,101400.16
2018-09-23T15:33:17.239Z,101401.58
2018-09-23T15:35:46.219Z,101404.89
2018-09-23T15:38:15.171Z,101407.65
2018-09-23T15:40:44.197Z,101393.52
2018-09-23T15:43:13.150Z,101399.42
2018-09-23T15:45:42.116Z,101405.53
2018-09-23T15:48:12.595Z,101406.91
2018-09-23T15:50:41.527Z,101407.02
2018-09-23T15:53:10.392Z,101413.12
2018-09-23T15:55:39.332Z,101410.53
2018-09-23T15:58:08.572Z,101410.91
2018-09-23T16:00:37.452Z,101421.63
2018-09-23T16:03:06.548Z,101409.31
2018-09-23T16:05:35.501Z,101414.50
2018-09-23T16:08:04.359Z,101416.94
2018-09-23T16:10:34.534Z,101413.64
2018-09-23T16:13:03.476Z,101409.77
2018-09-23T16:15:32.476Z,101407.85
2018-09-23T16:18:01.529Z,101405.86
2018-09-23T16:20:30.565Z,101402.70
2018-09-23T16:22:59.530Z,101408.73
2018-09-23T16:25:29.873Z,101404.78
2018-09-23T16:27:58.803Z,101410.64
2018-09-23T16:30:27.742Z,101416.81
2018-09-23T16:32:56.792Z,101409.85
2018-09-23T16:35:25.717Z,101411.00
2018-09-23T16:37:54.629Z,101422.76
2018-09-23T16:40:24.863Z,101423.78
2018-09-23T16:42:53.805Z,101423.78
2018-09-23T16:45:22.780Z,101416.42
2018-09-23T16:47:51.799Z,101415.36
2018-09-23T16:50:20.713Z,101420.25
2018-09-23T16:52:49.652Z,101422.23
2018-09-23T16:55:18.628Z,101416.28
2018-09-23T16:57:47.672Z,101420.30
2018-09-23T17:00:17.972Z,101424.61
2018-09-23T17:02:46.992Z,101426.59
2018-09-23T17:05:15.944Z,101433.87
2018-09-23T17:07:44.904Z,101436.52
2018-09-23T17:10:13.874Z,101433.61
2018-09-23T17:12:42.922Z,101430.16
2018-09-23T17:15:11.957Z,101430.91
2018-09-23T17:17:40.971Z,101435.23
2018-09-23T17:20:10.006Z,101436.02
2018-09-23T17:22:38.997Z,101440.96
2018-09-23T17:25:07.497Z,101442.05
2018-09-23T17:27:36.548Z,101436.91
2018-09-23T17:30:05.838Z,101438.92
2018-09-23T17:32:34.751Z,101441.36
2018-09-23T17:35:03.925Z,101444.17
2018-09-23T17:37:32.855Z,101442.41
2018-09-23T17:40:01.751Z,101450.56
2018-09-23T17:42:30.820Z,101449.02
2018-09-23T17:44:59.741Z,101445.97
2018-09-23T17:47:28.952Z,101442.55
2018-09-23T17:49:57.884Z,101447.78
2018-09-23T17:52:26.888Z,101440.08
2018-09-23T17:54:57.179Z,101440.39
2018-09-23T17:57:26.064Z,101445.23
2018-09-23T17:59:55.059Z,101441.98
2018-09-23T18:02:24.206Z,101446.73
2018-09-23T18:04:55.602Z,101447.22
2018-09-23T18:07:24.572Z,101445.62
2018-09-23T18:09:53.479Z,101450.22
2018-09-23T18:12:22.360Z,101446.64
2018-09-23T18:14:51.309Z,101447.27
2018-09-23T18:17:20.333Z,101453.25
2018-09-23T18:19:49.239Z,101458.41
2018-09-23T18:22:18.192Z,101461.58
2018-09-23T18:24:47.148Z,101463.56
2018-09-23T18:27:16.044Z,101462.06
2018-09-23T18:29:45.177Z,101462.24
2018-09-23T18:32:14.190Z,101457.61
2018-09-23T18:34:43.184Z,101445.89
2018-09-23T18:37:12.166Z,101441.34
2018-09-23T18:39:41.069Z,101440.16
2018-09-23T18:42:10.066Z,101447.91
2018-09-23T18:44:39.060Z,101452.73
2018-09-23T18:47:07.992Z,101451.67
2018-09-23T18:49:36.960Z,101446.20
2018-09-23T18:52:05.931Z,101450.55
2018-09-23T18:54:41.225Z,101444.13
2018-09-23T18:57:10.126Z,101450.78
2018-09-23T18:59:39.081Z,101451.41
2018-09-23T19:02:08.039Z,101449.64
2018-09-23T19:04:36.978Z,101454.13
2018-09-23T19:07:05.956Z,101456.50
2018-09-23T19:09:34.998Z,101454.17
2018-09-23T19:12:03.974Z,101460.12
2018-09-23T19:14:35.690Z,101463.34
2018-09-23T19:17:04.821Z,101457.05
2018-09-23T19:19:38.942Z,101454.30
2018-09-23T19:22:11.902Z,101454.97
2018-09-23T19:24:42.004Z,101454.29
2018-09-23T19:27:10.945Z,101447.28
2018-09-23T19:29:39.872Z,101442.36
2018-09-23T19:32:08.817Z,101445.72
2018-09-23T19:34:37.770Z,101441.98
2018-09-23T19:37:06.868Z,101436.86
2018-09-23T19:39:35.829Z,101433.73
2018-09-23T19:42:04.740Z,101434.97
2018-09-23T19:44:33.743Z,101434.92
2018-09-23T19:47:02.760Z,101429.86
2018-09-23T19:49:31.687Z,101436.65
2018-09-23T19:52:00.744Z,101438.23
2018-09-23T19:54:29.740Z,101435.84
2018-09-23T19:56:58.915Z,101430.65
2018-09-23T19:59:27.885Z,101426.82
2018-09-23T20:01:56.894Z,101427.61
2018-09-23T20:04:25.883Z,101429.09
2018-09-23T20:07:01.313Z,101425.98
2018-09-23T20:09:31.620Z,101426.50
2018-09-23T20:12:00.498Z,101426.59
2018-09-23T20:14:29.427Z,101432.20
2018-09-23T20:16:59.711Z,101432.94
2018-09-23T20:19:28.641Z,101434.92
2018-09-23T20:21:57.580Z,101423.37
2018-09-23T20:24:27.849Z,101430.42
2018-09-23T20:26:56.802Z,101422.05
2018-09-23T20:29:25.724Z,101419.94
2018-09-23T20:31:54.720Z,101420.88
2018-09-23T20:34:23.736Z,101420.16
2018-09-23T20:36:53.971Z,101423.95
2018-09-23T20:39:24.141Z,101419.15
2018-09-23T20:41:54.367Z,101421.05
2018-09-23T20:44:23.299Z,101417.08
2018-09-23T20:46:53.437Z,101417.36
2018-09-23T20:49:22.304Z,101409.89
2018-09-23T20:51:51.203Z,101405.33
2018-09-23T20:54:20.136Z,101404.44
2018-09-23T20:56:49.083Z,101390.45
2018-09-23T20:59:19.516Z,101399.91
2018-09-23T21:01:48.532Z,101392.77
2018-09-23T21:04:17.359Z,101395.55
2018-09-23T21:06:46.271Z,101397.44
2018-09-23T21:09:15.217Z,101397.86
2018-09-23T21:11:44.293Z,101390.13
2018-09-23T21:14:13.276Z,101384.97
2018-09-23T21:16:42.342Z,101385.98
2018-09-23T21:19:11.424Z,101380.88
2018-09-23T21:21:40.354Z,101382.81
2018-09-23T21:24:10.703Z,101381.31
2018-09-23T21:26:39.557Z,101382.77
2018-09-23T21:29:08.520Z,101382.64
2018-09-23T21:31:37.808Z,101379.11
2018-09-23T21:34:06.745Z,101378.14
2018-09-23T21:36:35.669Z,101372.37
2018-09-23T21:39:05.752Z,101368.55
2018-09-23T21:41:34.695Z,101366.44
2018-09-23T21:44:03.714Z,101370.22
2018-09-23T21:46:32.582Z,101369.03
2018-09-23T21:49:01.514Z,101364.38
2018-09-23T21:51:30.545Z,101370.27
2018-09-23T21:53:59.476Z,101371.08
2018-09-23T21:56:28.520Z,101366.07
2018-09-23T21:58:57.677Z,101362.79
2018-09-23T22:01:26.577Z,101360.02
2018-09-23T22:03:55.561Z,101364.27
2018-09-23T22:06:24.531Z,101360.08
2018-09-23T22:08:53.457Z,101357.34
2018-09-23T22:11:22.420Z,101354.83
2018-09-23T22:13:51.387Z,101353.31
2018-09-23T22:16:20.399Z,101356.86
2018-09-23T22:18:49.279Z,101352.30
2018-09-23T22:21:18.248Z,101350.69
2018-09-23T22:23:47.233Z,101346.52
2018-09-23T22:26:16.188Z,101341.79
2018-09-23T22:28:45.152Z,101340.53
2018-09-23T22:31:14.145Z,101334.94
2018-09-23T22:33:43.133Z,101333.39
2018-09-23T22:36:12.055Z,101332.44
2018-09-23T22:38:41.019Z,101335.07
2018-09-23T22:41:09.983Z,101333.81
2018-09-23T22:43:38.872Z,101329.17
2018-09-23T22:46:07.847Z,101325.93
2018-09-23T22:48:36.886Z,101326.91
2018-09-23T22:51:05.875Z,101327.73
2018-09-23T22:53:34.736Z,101319.77
2018-09-23T22:56:03.736Z,101322.11
2018-09-23T22:58:32.751Z,101320.50
2018-09-23T23:01:01.636Z,101313.62
2018-09-23T23:03:30.620Z,101309.06
2018-09-23T23:05:59.628Z,101308.83
2018-09-23T23:08:28.572Z,101302.17
2018-09-23T23:10:57.508Z,101300.86
2018-09-23T23:13:26.407Z,101303.56
2018-09-23T23:15:55.308Z,101292.16
2018-09-23T23:18:24.232Z,101293.27
2018-09-23T23:20:53.186Z,101292.53
2018-09-23T23:23:22.113Z,101286.59
2018-09-23T23:25:51.032Z,101284.75
2018-09-23T23:28:19.963Z,101274.02
2018-09-23T23:30:48.880Z,101272.63
2018-09-23T23:33:17.856Z,101272.77
2018-09-23T23:35:46.761Z,101270.64
2018-09-23T23:38:15.804Z,101260.30
2018-09-23T23:40:44.821Z,101260.23
2018-09-23T23:43:13.649Z,101260.03
2018-09-23T23:45:42.571Z,101249.75
2018-09-23T23:48:11.450Z,101249.63
2018-09-23T23:50:40.394Z,101235.73
2018-09-23T23:53:09.360Z,101244.41
2018-09-23T23:55:38.252Z,101243.38
2018-09-23T23:58:07.207Z,101245.73
